Chippewa County International Airport
KCIU : now visible

Airfield :











YOU CAN JOIN US ON...

 
LOGIN :

Register | Disclaimer

   EN    FR    IT 

 









Legend :    VFR   Marginal VFR   IFR   Intensive IFR   Very Intensive IFR
Visi :
Ceiling :
>= 8 km
>= 3000ft
5 to 8 km
1000 to 3000 ft
1500m to 5 km
500 to 1000 ft
800 to 1500m
200 to 500 ft
< 800m
< 200 ft
Symbols :   Thunderstorms  Fog  Heavy snow  Heavy precipitations  Wind > 20 kt






- Airport Elevation : 800 ft
- IATA code : CIU


KCIU - Chippewa County International

CURRENT METAR :
  • 221802Z AUTO 32009KT 3/4SM -SN BR OVC008 M10/M12 A2992 RMK AO2 CIG 006V010 P0000 FZRANO

EXPIRED METARs :
  • 221725Z AUTO 33006KT 1/2SM SN BKN008 BKN013 OVC023 M11/M13 A2992 RMK AO2 P0000 FZRANO
  • 221719Z AUTO 35008KT 1/4SM +SN FEW008 BKN013 OVC023 M11/M14 A2992 RMK AO2 P0000 FZRANO
  • 221703Z AUTO 33010KT 3/4SM -SN OVC021 M11/M14 A2992 RMK AO2 P0000 FZRANO
  • 221649Z AUTO 34009KT 3/4SM -SN OVC021 M11/M14 A2992 RMK AO2 SNB01 P0000 FZRANO
  • 221644Z AUTO 36010KT 1 3/4SM -SN OVC021 M10/M14 A2992 RMK AO2 SNB01 P0000 FZRANO
  • 221556Z AUTO 36005KT 9SM BKN021 BKN029 OVC034 M11/M17 A2991 RMK AO2 SNB01E45 SLP143 P0000 T11111167 FZRANO

TAF N/A
KZMP FIR / North America



MET'MAP, your aeronautical weather chart ! - Copyright ORBIFLY December 2007 - Disclaimer

ORBIFLY MET'MAP TEAM :

Programming & Development : Alexandra Zaïnal
Concept & original design : Baudouin d'Aumeries
Assistance for programming : Marc-Olivier Méhu
Technical & hardware support : Manuel Goepfert

Contact : metmap@orbifly.com




SOURCES & CREDITS :

   NOAA       Earth
Advisory